sensor_id;sensor_type;location;lat;lon;timestamp;P1;durP1;ratioP1;P2;durP2;ratioP2
3141;SDS011;1581;51.568;6.998;2023-03-04T00:01:26;13.13;;;3.77;;
3141;SDS011;1581;51.568;6.998;2023-03-04T00:03:54;12.87;;;2.93;;
3141;SDS011;1581;51.568;6.998;2023-03-04T00:06:21;14.73;;;3.00;;
3141;SDS011;1581;51.568;6.998;2023-03-04T00:08:49;26.30;;;3.70;;
3141;SDS011;1581;51.568;6.998;2023-03-04T00:11:18;21.57;;;3.50;;
3141;SDS011;1581;51.568;6.998;2023-03-04T00:13:46;15.17;;;4.43;;
3141;SDS011;1581;51.568;6.998;2023-03-04T00:16:14;27.20;;;5.27;;
3141;SDS011;1581;51.568;6.998;2023-03-04T00:18:41;23.33;;;3.50;;
3141;SDS011;1581;51.568;6.998;2023-03-04T00:21:09;16.70;;;3.03;;
3141;SDS011;1581;51.568;6.998;2023-03-04T00:23:37;13.97;;;3.60;;
3141;SDS011;1581;51.568;6.998;2023-03-04T00:26:05;13.17;;;3.07;;
3141;SDS011;1581;51.568;6.998;2023-03-04T00:28:35;5.93;;;2.73;;
3141;SDS011;1581;51.568;6.998;2023-03-04T00:31:04;17.60;;;3.43;;
3141;SDS011;1581;51.568;6.998;2023-03-04T00:33:31;26.23;;;5.33;;
3141;SDS011;1581;51.568;6.998;2023-03-04T00:35:59;17.70;;;3.37;;
3141;SDS011;1581;51.568;6.998;2023-03-04T00:38:30;25.13;;;4.07;;
3141;SDS011;1581;51.568;6.998;2023-03-04T00:40:57;17.17;;;3.37;;
3141;SDS011;1581;51.568;6.998;2023-03-04T00:43:25;15.43;;;2.60;;
3141;SDS011;1581;51.568;6.998;2023-03-04T00:45:55;11.23;;;2.77;;
3141;SDS011;1581;51.568;6.998;2023-03-04T00:48:23;14.17;;;3.20;;
3141;SDS011;1581;51.568;6.998;2023-03-04T00:50:51;11.83;;;2.10;;
3141;SDS011;1581;51.568;6.998;2023-03-04T00:53:19;18.80;;;3.33;;
3141;SDS011;1581;51.568;6.998;2023-03-04T00:55:48;16.50;;;2.80;;
3141;SDS011;1581;51.568;6.998;2023-03-04T00:58:16;21.77;;;3.40;;
3141;SDS011;1581;51.568;6.998;2023-03-04T01:00:43;13.20;;;3.30;;
3141;SDS011;1581;51.568;6.998;2023-03-04T01:03:13;12.77;;;4.20;;
3141;SDS011;1581;51.568;6.998;2023-03-04T01:05:40;24.37;;;3.50;;
3141;SDS011;1581;51.568;6.998;2023-03-04T01:08:08;17.10;;;2.80;;
3141;SDS011;1581;51.568;6.998;2023-03-04T01:10:36;18.20;;;3.10;;
3141;SDS011;1581;51.568;6.998;2023-03-04T01:13:03;8.67;;;2.90;;
3141;SDS011;1581;51.568;6.998;2023-03-04T01:15:31;13.17;;;3.13;;
3141;SDS011;1581;51.568;6.998;2023-03-04T01:17:59;11.50;;;4.03;;
3141;SDS011;1581;51.568;6.998;2023-03-04T01:20:28;19.83;;;3.77;;
3141;SDS011;1581;51.568;6.998;2023-03-04T01:22:56;11.97;;;3.00;;
3141;SDS011;1581;51.568;6.998;2023-03-04T01:25:24;10.43;;;3.00;;
3141;SDS011;1581;51.568;6.998;2023-03-04T01:27:52;20.20;;;3.90;;
3141;SDS011;1581;51.568;6.998;2023-03-04T01:30:19;19.07;;;3.67;;
3141;SDS011;1581;51.568;6.998;2023-03-04T01:32:47;16.50;;;3.37;;
3141;SDS011;1581;51.568;6.998;2023-03-04T01:35:15;17.00;;;3.27;;
3141;SDS011;1581;51.568;6.998;2023-03-04T01:37:44;18.20;;;2.67;;
3141;SDS011;1581;51.568;6.998;2023-03-04T01:40:12;21.73;;;2.77;;
3141;SDS011;1581;51.568;6.998;2023-03-04T01:42:42;22.40;;;2.50;;
3141;SDS011;1581;51.568;6.998;2023-03-04T01:45:11;7.50;;;1.90;;
3141;SDS011;1581;51.568;6.998;2023-03-04T01:47:43;6.20;;;2.53;;
3141;SDS011;1581;51.568;6.998;2023-03-04T01:50:16;23.17;;;3.63;;
3141;SDS011;1581;51.568;6.998;2023-03-04T01:52:50;22.40;;;3.40;;
3141;SDS011;1581;51.568;6.998;2023-03-04T01:55:18;16.53;;;2.30;;
3141;SDS011;1581;51.568;6.998;2023-03-04T01:57:48;17.23;;;2.43;;
3141;SDS011;1581;51.568;6.998;2023-03-04T02:00:18;15.13;;;2.17;;
3141;SDS011;1581;51.568;6.998;2023-03-04T02:02:52;17.30;;;2.97;;
3141;SDS011;1581;51.568;6.998;2023-03-04T02:05:23;26.37;;;3.70;;
3141;SDS011;1581;51.568;6.998;2023-03-04T02:07:53;23.97;;;4.00;;
3141;SDS011;1581;51.568;6.998;2023-03-04T02:10:22;24.23;;;4.83;;
3141;SDS011;1581;51.568;6.998;2023-03-04T02:12:51;15.00;;;3.90;;
3141;SDS011;1581;51.568;6.998;2023-03-04T02:15:19;9.70;;;2.17;;
3141;SDS011;1581;51.568;6.998;2023-03-04T02:17:47;22.77;;;3.40;;
3141;SDS011;1581;51.568;6.998;2023-03-04T02:20:24;13.10;;;2.73;;
3141;SDS011;1581;51.568;6.998;2023-03-04T02:23:06;10.40;;;2.33;;
3141;SDS011;1581;51.568;6.998;2023-03-04T02:25:42;15.17;;;2.53;;
3141;SDS011;1581;51.568;6.998;2023-03-04T02:28:16;20.77;;;2.73;;
3141;SDS011;1581;51.568;6.998;2023-03-04T02:30:43;19.83;;;4.23;;
3141;SDS011;1581;51.568;6.998;2023-03-04T02:33:13;13.73;;;3.20;;
3141;SDS011;1581;51.568;6.998;2023-03-04T02:35:44;23.57;;;2.50;;
3141;SDS011;1581;51.568;6.998;2023-03-04T02:38:12;19.17;;;3.43;;
3141;SDS011;1581;51.568;6.998;2023-03-04T02:40:40;13.47;;;2.63;;
3141;SDS011;1581;51.568;6.998;2023-03-04T02:43:12;15.67;;;2.90;;
3141;SDS011;1581;51.568;6.998;2023-03-04T02:45:43;17.07;;;3.07;;
3141;SDS011;1581;51.568;6.998;2023-03-04T02:48:14;17.43;;;3.30;;
3141;SDS011;1581;51.568;6.998;2023-03-04T02:50:47;9.90;;;3.03;;
3141;SDS011;1581;51.568;6.998;2023-03-04T02:53:17;20.93;;;3.17;;
3141;SDS011;1581;51.568;6.998;2023-03-04T02:55:46;14.60;;;2.83;;
3141;SDS011;1581;51.568;6.998;2023-03-04T02:58:15;21.17;;;3.03;;
3141;SDS011;1581;51.568;6.998;2023-03-04T03:00:43;21.70;;;2.87;;
3141;SDS011;1581;51.568;6.998;2023-03-04T03:03:11;23.63;;;3.33;;
3141;SDS011;1581;51.568;6.998;2023-03-04T03:05:38;14.37;;;2.47;;
3141;SDS011;1581;51.568;6.998;2023-03-04T03:08:06;13.20;;;2.67;;
3141;SDS011;1581;51.568;6.998;2023-03-04T03:10:34;21.67;;;3.20;;
3141;SDS011;1581;51.568;6.998;2023-03-04T03:13:02;26.20;;;3.33;;
3141;SDS011;1581;51.568;6.998;2023-03-04T03:15:31;15.13;;;2.43;;
3141;SDS011;1581;51.568;6.998;2023-03-04T03:17:58;30.83;;;3.03;;
3141;SDS011;1581;51.568;6.998;2023-03-04T03:20:26;14.53;;;2.40;;
3141;SDS011;1581;51.568;6.998;2023-03-04T03:22:54;19.67;;;3.07;;
3141;SDS011;1581;51.568;6.998;2023-03-04T03:25:21;16.53;;;2.70;;
3141;SDS011;1581;51.568;6.998;2023-03-04T03:27:49;12.90;;;2.27;;
3141;SDS011;1581;51.568;6.998;2023-03-04T03:30:16;16.60;;;4.17;;
3141;SDS011;1581;51.568;6.998;2023-03-04T03:32:46;14.77;;;2.40;;
3141;SDS011;1581;51.568;6.998;2023-03-04T03:35:13;14.23;;;2.97;;
3141;SDS011;1581;51.568;6.998;2023-03-04T03:37:41;13.73;;;2.30;;
3141;SDS011;1581;51.568;6.998;2023-03-04T03:40:09;22.30;;;2.33;;
3141;SDS011;1581;51.568;6.998;2023-03-04T03:42:39;22.17;;;2.57;;
3141;SDS011;1581;51.568;6.998;2023-03-04T03:45:07;15.03;;;2.20;;
3141;SDS011;1581;51.568;6.998;2023-03-04T03:47:35;17.73;;;2.50;;
3141;SDS011;1581;51.568;6.998;2023-03-04T03:50:05;15.97;;;2.53;;
3141;SDS011;1581;51.568;6.998;2023-03-04T03:52:33;25.50;;;2.97;;
3141;SDS011;1581;51.568;6.998;2023-03-04T03:55:01;18.93;;;2.63;;
3141;SDS011;1581;51.568;6.998;2023-03-04T03:57:29;19.60;;;2.80;;
3141;SDS011;1581;51.568;6.998;2023-03-04T03:59:57;10.20;;;2.10;;
3141;SDS011;1581;51.568;6.998;2023-03-04T04:02:24;12.57;;;2.87;;
3141;SDS011;1581;51.568;6.998;2023-03-04T04:04:52;10.60;;;2.70;;
3141;SDS011;1581;51.568;6.998;2023-03-04T04:07:21;11.80;;;2.47;;
3141;SDS011;1581;51.568;6.998;2023-03-04T04:09:48;8.60;;;1.80;;
3141;SDS011;1581;51.568;6.998;2023-03-04T04:12:17;16.90;;;2.90;;
3141;SDS011;1581;51.568;6.998;2023-03-04T04:14:46;14.93;;;2.17;;
3141;SDS011;1581;51.568;6.998;2023-03-04T04:17:14;12.80;;;2.87;;
3141;SDS011;1581;51.568;6.998;2023-03-04T04:19:42;13.40;;;2.90;;
3141;SDS011;1581;51.568;6.998;2023-03-04T04:22:11;10.03;;;2.60;;
3141;SDS011;1581;51.568;6.998;2023-03-04T04:24:44;17.93;;;2.77;;
3141;SDS011;1581;51.568;6.998;2023-03-04T04:27:12;14.17;;;2.50;;
3141;SDS011;1581;51.568;6.998;2023-03-04T04:29:39;13.47;;;1.80;;
3141;SDS011;1581;51.568;6.998;2023-03-04T04:32:07;12.40;;;2.20;;
3141;SDS011;1581;51.568;6.998;2023-03-04T04:34:37;8.43;;;2.40;;
3141;SDS011;1581;51.568;6.998;2023-03-04T04:37:05;8.97;;;1.83;;
3141;SDS011;1581;51.568;6.998;2023-03-04T04:39:32;6.50;;;1.70;;
3141;SDS011;1581;51.568;6.998;2023-03-04T04:42:02;16.97;;;2.40;;
3141;SDS011;1581;51.568;6.998;2023-03-04T04:44:30;15.87;;;2.47;;
3141;SDS011;1581;51.568;6.998;2023-03-04T04:46:57;10.63;;;1.73;;
3141;SDS011;1581;51.568;6.998;2023-03-04T04:49:25;12.90;;;2.87;;
3141;SDS011;1581;51.568;6.998;2023-03-04T04:51:53;13.23;;;2.03;;
3141;SDS011;1581;51.568;6.998;2023-03-04T04:54:21;15.47;;;2.30;;
3141;SDS011;1581;51.568;6.998;2023-03-04T04:56:49;9.37;;;2.30;;
3141;SDS011;1581;51.568;6.998;2023-03-04T04:59:18;12.30;;;2.43;;
3141;SDS011;1581;51.568;6.998;2023-03-04T05:01:46;17.83;;;2.70;;
3141;SDS011;1581;51.568;6.998;2023-03-04T05:04:14;8.67;;;2.20;;
3141;SDS011;1581;51.568;6.998;2023-03-04T05:06:42;13.93;;;2.37;;
3141;SDS011;1581;51.568;6.998;2023-03-04T05:09:10;7.47;;;2.30;;
3141;SDS011;1581;51.568;6.998;2023-03-04T05:11:38;11.23;;;1.80;;
3141;SDS011;1581;51.568;6.998;2023-03-04T05:14:06;15.03;;;2.50;;
3141;SDS011;1581;51.568;6.998;2023-03-04T05:16:35;8.77;;;2.17;;
3141;SDS011;1581;51.568;6.998;2023-03-04T05:19:03;11.60;;;2.00;;
3141;SDS011;1581;51.568;6.998;2023-03-04T05:21:31;12.80;;;2.17;;
3141;SDS011;1581;51.568;6.998;2023-03-04T05:23:58;16.90;;;1.90;;
3141;SDS011;1581;51.568;6.998;2023-03-04T05:26:26;8.17;;;1.87;;
3141;SDS011;1581;51.568;6.998;2023-03-04T05:28:54;12.47;;;2.10;;
3141;SDS011;1581;51.568;6.998;2023-03-04T05:31:21;13.90;;;1.90;;
3141;SDS011;1581;51.568;6.998;2023-03-04T05:33:50;25.37;;;2.67;;
3141;SDS011;1581;51.568;6.998;2023-03-04T05:36:18;14.07;;;1.53;;
3141;SDS011;1581;51.568;6.998;2023-03-04T05:38:46;6.53;;;1.70;;
3141;SDS011;1581;51.568;6.998;2023-03-04T05:41:14;16.23;;;2.30;;
3141;SDS011;1581;51.568;6.998;2023-03-04T05:43:44;16.67;;;2.67;;
3141;SDS011;1581;51.568;6.998;2023-03-04T05:46:12;7.93;;;1.80;;
3141;SDS011;1581;51.568;6.998;2023-03-04T05:48:41;10.97;;;3.80;;
3141;SDS011;1581;51.568;6.998;2023-03-04T05:51:10;17.47;;;2.77;;
3141;SDS011;1581;51.568;6.998;2023-03-04T05:53:39;15.10;;;2.30;;
3141;SDS011;1581;51.568;6.998;2023-03-04T05:56:07;14.10;;;2.27;;
3141;SDS011;1581;51.568;6.998;2023-03-04T05:58:37;9.20;;;2.27;;
3141;SDS011;1581;51.568;6.998;2023-03-04T06:01:05;12.00;;;2.63;;
3141;SDS011;1581;51.568;6.998;2023-03-04T06:03:33;15.90;;;2.37;;
3141;SDS011;1581;51.568;6.998;2023-03-04T06:06:01;15.57;;;1.80;;
3141;SDS011;1581;51.568;6.998;2023-03-04T06:08:31;16.50;;;2.00;;
3141;SDS011;1581;51.568;6.998;2023-03-04T06:10:59;12.27;;;1.90;;
3141;SDS011;1581;51.568;6.998;2023-03-04T06:13:29;11.60;;;1.93;;
3141;SDS011;1581;51.568;6.998;2023-03-04T06:15:57;11.90;;;1.97;;
3141;SDS011;1581;51.568;6.998;2023-03-04T06:18:26;6.33;;;1.83;;
3141;SDS011;1581;51.568;6.998;2023-03-04T06:20:55;9.83;;;2.03;;
3141;SDS011;1581;51.568;6.998;2023-03-04T06:23:26;9.90;;;1.57;;
3141;SDS011;1581;51.568;6.998;2023-03-04T06:25:57;8.33;;;1.80;;
3141;SDS011;1581;51.568;6.998;2023-03-04T06:28:26;7.60;;;1.70;;
3141;SDS011;1581;51.568;6.998;2023-03-04T06:30:54;12.17;;;2.00;;
3141;SDS011;1581;51.568;6.998;2023-03-04T06:33:23;20.17;;;2.13;;
3141;SDS011;1581;51.568;6.998;2023-03-04T06:35:52;9.17;;;1.93;;
3141;SDS011;1581;51.568;6.998;2023-03-04T06:38:21;7.67;;;2.10;;
3141;SDS011;1581;51.568;6.998;2023-03-04T06:40:50;9.80;;;1.73;;
3141;SDS011;1581;51.568;6.998;2023-03-04T06:43:20;14.20;;;2.37;;
3141;SDS011;1581;51.568;6.998;2023-03-04T06:45:49;14.70;;;2.00;;
3141;SDS011;1581;51.568;6.998;2023-03-04T06:48:16;7.40;;;1.80;;
3141;SDS011;1581;51.568;6.998;2023-03-04T06:50:44;11.17;;;1.97;;
3141;SDS011;1581;51.568;6.998;2023-03-04T06:53:12;5.03;;;1.93;;
3141;SDS011;1581;51.568;6.998;2023-03-04T06:55:39;7.10;;;1.67;;
3141;SDS011;1581;51.568;6.998;2023-03-04T06:58:07;11.53;;;2.20;;
3141;SDS011;1581;51.568;6.998;2023-03-04T07:00:36;9.20;;;1.50;;
3141;SDS011;1581;51.568;6.998;2023-03-04T07:03:04;12.70;;;2.10;;
3141;SDS011;1581;51.568;6.998;2023-03-04T07:05:32;13.47;;;2.27;;
3141;SDS011;1581;51.568;6.998;2023-03-04T07:08:00;8.47;;;2.20;;
3141;SDS011;1581;51.568;6.998;2023-03-04T07:10:28;13.43;;;2.00;;
3141;SDS011;1581;51.568;6.998;2023-03-04T07:12:56;16.77;;;2.80;;
3141;SDS011;1581;51.568;6.998;2023-03-04T07:15:23;5.90;;;1.60;;
3141;SDS011;1581;51.568;6.998;2023-03-04T07:17:52;14.20;;;1.97;;
3141;SDS011;1581;51.568;6.998;2023-03-04T07:20:20;11.63;;;2.20;;
3141;SDS011;1581;51.568;6.998;2023-03-04T07:22:48;10.97;;;2.07;;
3141;SDS011;1581;51.568;6.998;2023-03-04T07:25:15;13.10;;;2.20;;
3141;SDS011;1581;51.568;6.998;2023-03-04T07:27:43;12.13;;;1.80;;
3141;SDS011;1581;51.568;6.998;2023-03-04T07:30:11;10.53;;;2.13;;
3141;SDS011;1581;51.568;6.998;2023-03-04T07:32:39;16.10;;;2.53;;
3141;SDS011;1581;51.568;6.998;2023-03-04T07:35:08;9.80;;;2.30;;
3141;SDS011;1581;51.568;6.998;2023-03-04T07:37:36;7.90;;;1.93;;
3141;SDS011;1581;51.568;6.998;2023-03-04T07:40:05;14.67;;;3.30;;
3141;SDS011;1581;51.568;6.998;2023-03-04T07:42:36;10.20;;;2.13;;
3141;SDS011;1581;51.568;6.998;2023-03-04T07:45:04;17.20;;;2.23;;
3141;SDS011;1581;51.568;6.998;2023-03-04T07:47:33;11.63;;;2.00;;
3141;SDS011;1581;51.568;6.998;2023-03-04T07:50:01;10.33;;;1.70;;
3141;SDS011;1581;51.568;6.998;2023-03-04T07:52:30;7.00;;;2.50;;
3141;SDS011;1581;51.568;6.998;2023-03-04T07:54:58;11.60;;;2.43;;
3141;SDS011;1581;51.568;6.998;2023-03-04T07:57:26;11.63;;;1.50;;
3141;SDS011;1581;51.568;6.998;2023-03-04T07:59:55;7.47;;;2.27;;
3141;SDS011;1581;51.568;6.998;2023-03-04T08:02:23;10.23;;;2.03;;
3141;SDS011;1581;51.568;6.998;2023-03-04T08:04:51;15.57;;;2.07;;
3141;SDS011;1581;51.568;6.998;2023-03-04T08:07:18;9.40;;;1.77;;
3141;SDS011;1581;51.568;6.998;2023-03-04T08:09:47;6.90;;;1.80;;
3141;SDS011;1581;51.568;6.998;2023-03-04T08:12:15;11.30;;;1.50;;
3141;SDS011;1581;51.568;6.998;2023-03-04T08:14:43;10.93;;;2.03;;
3141;SDS011;1581;51.568;6.998;2023-03-04T08:17:11;9.30;;;2.27;;
3141;SDS011;1581;51.568;6.998;2023-03-04T08:19:40;9.00;;;2.67;;
3141;SDS011;1581;51.568;6.998;2023-03-04T08:22:07;3.77;;;1.30;;
3141;SDS011;1581;51.568;6.998;2023-03-04T08:24:36;8.23;;;1.60;;
3141;SDS011;1581;51.568;6.998;2023-03-04T08:27:05;3.83;;;1.00;;
3141;SDS011;1581;51.568;6.998;2023-03-04T08:29:32;7.37;;;1.77;;
3141;SDS011;1581;51.568;6.998;2023-03-04T08:32:00;18.13;;;2.23;;
3141;SDS011;1581;51.568;6.998;2023-03-04T08:34:28;18.90;;;2.60;;
3141;SDS011;1581;51.568;6.998;2023-03-04T08:36:56;6.60;;;1.40;;
3141;SDS011;1581;51.568;6.998;2023-03-04T08:39:24;17.13;;;2.40;;
3141;SDS011;1581;51.568;6.998;2023-03-04T08:41:52;16.50;;;2.23;;
3141;SDS011;1581;51.568;6.998;2023-03-04T08:44:22;4.10;;;1.50;;
3141;SDS011;1581;51.568;6.998;2023-03-04T08:46:50;9.07;;;1.83;;
3141;SDS011;1581;51.568;6.998;2023-03-04T08:49:18;8.87;;;1.57;;
3141;SDS011;1581;51.568;6.998;2023-03-04T08:51:45;12.80;;;1.73;;
3141;SDS011;1581;51.568;6.998;2023-03-04T08:54:13;9.27;;;2.13;;
3141;SDS011;1581;51.568;6.998;2023-03-04T08:56:41;4.60;;;1.63;;
3141;SDS011;1581;51.568;6.998;2023-03-04T08:59:09;10.60;;;1.90;;
3141;SDS011;1581;51.568;6.998;2023-03-04T09:01:38;5.20;;;1.47;;
3141;SDS011;1581;51.568;6.998;2023-03-04T09:04:05;12.53;;;2.00;;
3141;SDS011;1581;51.568;6.998;2023-03-04T09:06:33;3.27;;;1.60;;
3141;SDS011;1581;51.568;6.998;2023-03-04T09:09:01;9.10;;;2.23;;
3141;SDS011;1581;51.568;6.998;2023-03-04T09:11:30;7.70;;;2.37;;
3141;SDS011;1581;51.568;6.998;2023-03-04T09:13:57;10.00;;;1.83;;
3141;SDS011;1581;51.568;6.998;2023-03-04T09:16:25;14.60;;;2.00;;
3141;SDS011;1581;51.568;6.998;2023-03-04T09:18:54;8.17;;;2.43;;
3141;SDS011;1581;51.568;6.998;2023-03-04T09:21:22;10.77;;;1.80;;
3141;SDS011;1581;51.568;6.998;2023-03-04T09:23:49;6.93;;;1.80;;
3141;SDS011;1581;51.568;6.998;2023-03-04T09:26:19;4.33;;;1.30;;
3141;SDS011;1581;51.568;6.998;2023-03-04T09:28:57;8.03;;;1.60;;
3141;SDS011;1581;51.568;6.998;2023-03-04T09:31:27;5.07;;;1.30;;
3141;SDS011;1581;51.568;6.998;2023-03-04T09:33:59;9.07;;;1.63;;
3141;SDS011;1581;51.568;6.998;2023-03-04T09:36:27;5.10;;;1.80;;
3141;SDS011;1581;51.568;6.998;2023-03-04T09:38:57;12.03;;;2.10;;
3141;SDS011;1581;51.568;6.998;2023-03-04T09:41:29;10.93;;;2.23;;
3141;SDS011;1581;51.568;6.998;2023-03-04T09:44:05;3.13;;;1.47;;
3141;SDS011;1581;51.568;6.998;2023-03-04T09:46:41;8.67;;;1.47;;
3141;SDS011;1581;51.568;6.998;2023-03-04T09:49:13;7.53;;;1.40;;
3141;SDS011;1581;51.568;6.998;2023-03-04T09:51:46;3.50;;;1.30;;
3141;SDS011;1581;51.568;6.998;2023-03-04T09:57:25;2.50;;;1.07;;
3141;SDS011;1581;51.568;6.998;2023-03-04T10:00:11;2.03;;;0.87;;
3141;SDS011;1581;51.568;6.998;2023-03-04T10:02:52;6.43;;;1.00;;
3141;SDS011;1581;51.568;6.998;2023-03-04T10:05:47;6.60;;;1.47;;
3141;SDS011;1581;51.568;6.998;2023-03-04T10:11:13;6.93;;;1.20;;
3141;SDS011;1581;51.568;6.998;2023-03-04T10:13:46;4.20;;;1.10;;
3141;SDS011;1581;51.568;6.998;2023-03-04T10:16:24;9.27;;;1.40;;
3141;SDS011;1581;51.568;6.998;2023-03-04T10:19:00;8.30;;;1.10;;
3141;SDS011;1581;51.568;6.998;2023-03-04T10:21:49;4.20;;;1.80;;
3141;SDS011;1581;51.568;6.998;2023-03-04T10:24:18;2.70;;;1.00;;
3141;SDS011;1581;51.568;6.998;2023-03-04T10:26:50;11.40;;;1.10;;
3141;SDS011;1581;51.568;6.998;2023-03-04T10:29:22;5.93;;;1.50;;
3141;SDS011;1581;51.568;6.998;2023-03-04T10:31:50;2.20;;;0.90;;
3141;SDS011;1581;51.568;6.998;2023-03-04T10:34:20;5.93;;;1.63;;
3141;SDS011;1581;51.568;6.998;2023-03-04T10:36:59;4.53;;;1.43;;
3141;SDS011;1581;51.568;6.998;2023-03-04T10:39:30;15.80;;;1.37;;
3141;SDS011;1581;51.568;6.998;2023-03-04T10:42:01;6.50;;;1.33;;
3141;SDS011;1581;51.568;6.998;2023-03-04T10:44:31;5.30;;;1.43;;
3141;SDS011;1581;51.568;6.998;2023-03-04T10:47:02;1.87;;;1.20;;
3141;SDS011;1581;51.568;6.998;2023-03-04T10:49:48;3.83;;;1.10;;
3141;SDS011;1581;51.568;6.998;2023-03-04T10:52:22;8.30;;;1.53;;
3141;SDS011;1581;51.568;6.998;2023-03-04T10:54:56;10.97;;;1.57;;
3141;SDS011;1581;51.568;6.998;2023-03-04T10:57:28;6.10;;;1.60;;
3141;SDS011;1581;51.568;6.998;2023-03-04T11:00:08;4.50;;;0.90;;
3141;SDS011;1581;51.568;6.998;2023-03-04T11:02:53;2.57;;;1.20;;
3141;SDS011;1581;51.568;6.998;2023-03-04T11:06:05;3.10;;;1.00;;
3141;SDS011;1581;51.568;6.998;2023-03-04T11:08:43;8.30;;;1.53;;
3141;SDS011;1581;51.568;6.998;2023-03-04T11:11:22;2.70;;;1.20;;
3141;SDS011;1581;51.568;6.998;2023-03-04T11:13:59;7.97;;;1.83;;
3141;SDS011;1581;51.568;6.998;2023-03-04T11:16:31;3.43;;;1.33;;
3141;SDS011;1581;51.568;6.998;2023-03-04T11:19:01;3.57;;;1.40;;
3141;SDS011;1581;51.568;6.998;2023-03-04T11:21:33;8.13;;;1.40;;
3141;SDS011;1581;51.568;6.998;2023-03-04T11:24:10;5.17;;;1.60;;
3141;SDS011;1581;51.568;6.998;2023-03-04T11:26:44;3.40;;;1.10;;
3141;SDS011;1581;51.568;6.998;2023-03-04T11:29:17;4.67;;;1.30;;
3141;SDS011;1581;51.568;6.998;2023-03-04T11:31:51;6.03;;;1.23;;
3141;SDS011;1581;51.568;6.998;2023-03-04T11:34:27;4.83;;;1.00;;
3141;SDS011;1581;51.568;6.998;2023-03-04T11:37:05;3.10;;;1.20;;
3141;SDS011;1581;51.568;6.998;2023-03-04T11:39:45;4.77;;;1.23;;
3141;SDS011;1581;51.568;6.998;2023-03-04T11:42:21;3.73;;;1.20;;
3141;SDS011;1581;51.568;6.998;2023-03-04T11:44:57;4.90;;;1.37;;
3141;SDS011;1581;51.568;6.998;2023-03-04T11:47:28;5.73;;;2.03;;
3141;SDS011;1581;51.568;6.998;2023-03-04T11:50:14;7.50;;;1.37;;
3141;SDS011;1581;51.568;6.998;2023-03-04T11:53:08;7.60;;;1.30;;
3141;SDS011;1581;51.568;6.998;2023-03-04T11:56:11;3.33;;;1.37;;
3141;SDS011;1581;51.568;6.998;2023-03-04T11:58:54;3.03;;;1.10;;
3141;SDS011;1581;51.568;6.998;2023-03-04T12:01:42;6.40;;;1.80;;
3141;SDS011;1581;51.568;6.998;2023-03-04T12:04:27;2.77;;;1.40;;
3141;SDS011;1581;51.568;6.998;2023-03-04T12:07:21;4.20;;;1.50;;
3141;SDS011;1581;51.568;6.998;2023-03-04T12:10:26;3.57;;;1.30;;
3141;SDS011;1581;51.568;6.998;2023-03-04T12:16:18;2.77;;;1.37;;
3141;SDS011;1581;51.568;6.998;2023-03-04T12:19:03;3.57;;;1.60;;
3141;SDS011;1581;51.568;6.998;2023-03-04T12:21:49;7.90;;;2.10;;
3141;SDS011;1581;51.568;6.998;2023-03-04T12:28:02;3.87;;;1.40;;
3141;SDS011;1581;51.568;6.998;2023-03-04T12:30:49;4.90;;;1.87;;
3141;SDS011;1581;51.568;6.998;2023-03-04T12:33:40;8.70;;;2.07;;
3141;SDS011;1581;51.568;6.998;2023-03-04T12:36:22;4.20;;;1.33;;
3141;SDS011;1581;51.568;6.998;2023-03-04T12:39:04;3.53;;;1.33;;
3141;SDS011;1581;51.568;6.998;2023-03-04T12:41:50;3.80;;;1.67;;
3141;SDS011;1581;51.568;6.998;2023-03-04T12:44:33;3.90;;;1.50;;
3141;SDS011;1581;51.568;6.998;2023-03-04T12:47:16;7.63;;;1.50;;
3141;SDS011;1581;51.568;6.998;2023-03-04T12:50:12;3.43;;;1.47;;
3141;SDS011;1581;51.568;6.998;2023-03-04T12:52:58;1.40;;;1.30;;
3141;SDS011;1581;51.568;6.998;2023-03-04T12:55:38;6.37;;;2.40;;
3141;SDS011;1581;51.568;6.998;2023-03-04T12:58:12;14.60;;;2.10;;
3141;SDS011;1581;51.568;6.998;2023-03-04T13:00:46;3.33;;;1.50;;
3141;SDS011;1581;51.568;6.998;2023-03-04T13:03:24;1.40;;;1.30;;
3141;SDS011;1581;51.568;6.998;2023-03-04T13:06:09;3.30;;;1.50;;
3141;SDS011;1581;51.568;6.998;2023-03-04T13:08:50;1.93;;;1.83;;
3141;SDS011;1581;51.568;6.998;2023-03-04T13:11:38;4.33;;;1.70;;
3141;SDS011;1581;51.568;6.998;2023-03-04T13:14:26;3.70;;;1.70;;
3141;SDS011;1581;51.568;6.998;2023-03-04T13:16:57;6.30;;;2.20;;
3141;SDS011;1581;51.568;6.998;2023-03-04T13:19:45;3.23;;;1.60;;
3141;SDS011;1581;51.568;6.998;2023-03-04T13:22:27;1.60;;;1.50;;
3141;SDS011;1581;51.568;6.998;2023-03-04T13:28:14;6.13;;;1.60;;
3141;SDS011;1581;51.568;6.998;2023-03-04T13:33:58;1.37;;;1.20;;
3141;SDS011;1581;51.568;6.998;2023-03-04T13:39:34;2.60;;;1.43;;
3141;SDS011;1581;51.568;6.998;2023-03-04T13:42:03;4.33;;;1.40;;
3141;SDS011;1581;51.568;6.998;2023-03-04T13:44:58;4.83;;;1.60;;
3141;SDS011;1581;51.568;6.998;2023-03-04T13:47:32;3.10;;;1.40;;
3141;SDS011;1581;51.568;6.998;2023-03-04T13:50:28;2.13;;;1.50;;
3141;SDS011;1581;51.568;6.998;2023-03-04T13:56:21;1.40;;;1.23;;
3141;SDS011;1581;51.568;6.998;2023-03-04T14:04:42;7.30;;;1.20;;
3141;SDS011;1581;51.568;6.998;2023-03-04T14:07:18;3.03;;;1.53;;
3141;SDS011;1581;51.568;6.998;2023-03-04T14:09:56;2.63;;;1.20;;
3141;SDS011;1581;51.568;6.998;2023-03-04T14:12:29;1.67;;;0.80;;
3141;SDS011;1581;51.568;6.998;2023-03-04T14:15:02;5.57;;;1.13;;
3141;SDS011;1581;51.568;6.998;2023-03-04T14:17:32;2.77;;;1.33;;
3141;SDS011;1581;51.568;6.998;2023-03-04T14:20:02;4.47;;;1.40;;
3141;SDS011;1581;51.568;6.998;2023-03-04T14:22:46;4.20;;;2.20;;
3141;SDS011;1581;51.568;6.998;2023-03-04T14:25:21;3.63;;;1.70;;
3141;SDS011;1581;51.568;6.998;2023-03-04T14:28:00;8.77;;;1.53;;
3141;SDS011;1581;51.568;6.998;2023-03-04T14:30:30;5.83;;;1.60;;
3141;SDS011;1581;51.568;6.998;2023-03-04T14:32:59;5.83;;;1.70;;
3141;SDS011;1581;51.568;6.998;2023-03-04T14:35:28;9.60;;;1.57;;
3141;SDS011;1581;51.568;6.998;2023-03-04T14:37:58;7.20;;;1.30;;
3141;SDS011;1581;51.568;6.998;2023-03-04T14:40:31;7.90;;;1.57;;
3141;SDS011;1581;51.568;6.998;2023-03-04T14:43:04;16.13;;;1.73;;
3141;SDS011;1581;51.568;6.998;2023-03-04T14:45:39;7.93;;;1.20;;
3141;SDS011;1581;51.568;6.998;2023-03-04T14:48:16;6.43;;;1.53;;
3141;SDS011;1581;51.568;6.998;2023-03-04T14:50:48;18.70;;;1.27;;
3141;SDS011;1581;51.568;6.998;2023-03-04T14:53:18;5.47;;;0.97;;
3141;SDS011;1581;51.568;6.998;2023-03-04T14:55:56;2.67;;;1.13;;
3141;SDS011;1581;51.568;6.998;2023-03-04T14:58:26;4.10;;;1.63;;
3141;SDS011;1581;51.568;6.998;2023-03-04T15:01:12;4.97;;;1.43;;
3141;SDS011;1581;51.568;6.998;2023-03-04T15:03:43;4.53;;;1.60;;
3141;SDS011;1581;51.568;6.998;2023-03-04T15:06:19;4.33;;;1.70;;
3141;SDS011;1581;51.568;6.998;2023-03-04T15:08:57;4.50;;;1.60;;
3141;SDS011;1581;51.568;6.998;2023-03-04T15:11:30;8.33;;;2.37;;
3141;SDS011;1581;51.568;6.998;2023-03-04T15:17:21;5.17;;;2.03;;
3141;SDS011;1581;51.568;6.998;2023-03-04T15:20:00;4.17;;;1.60;;
3141;SDS011;1581;51.568;6.998;2023-03-04T15:22:57;7.43;;;1.93;;
3141;SDS011;1581;51.568;6.998;2023-03-04T15:25:28;7.33;;;1.70;;
3141;SDS011;1581;51.568;6.998;2023-03-04T15:27:57;7.30;;;1.70;;
3141;SDS011;1581;51.568;6.998;2023-03-04T15:30:25;11.13;;;2.00;;
3141;SDS011;1581;51.568;6.998;2023-03-04T15:32:55;7.47;;;2.17;;
3141;SDS011;1581;51.568;6.998;2023-03-04T15:35:26;12.97;;;2.60;;
3141;SDS011;1581;51.568;6.998;2023-03-04T15:37:55;5.47;;;1.40;;
3141;SDS011;1581;51.568;6.998;2023-03-04T15:40:25;5.23;;;1.77;;
3141;SDS011;1581;51.568;6.998;2023-03-04T15:42:56;16.57;;;2.23;;
3141;SDS011;1581;51.568;6.998;2023-03-04T15:45:29;8.10;;;1.57;;
3141;SDS011;1581;51.568;6.998;2023-03-04T15:48:00;10.60;;;1.20;;
3141;SDS011;1581;51.568;6.998;2023-03-04T15:50:32;5.67;;;1.30;;
3141;SDS011;1581;51.568;6.998;2023-03-04T15:53:02;5.93;;;1.30;;
3141;SDS011;1581;51.568;6.998;2023-03-04T15:55:33;11.30;;;2.00;;
3141;SDS011;1581;51.568;6.998;2023-03-04T15:58:03;4.57;;;1.33;;
3141;SDS011;1581;51.568;6.998;2023-03-04T16:00:31;6.87;;;1.47;;
3141;SDS011;1581;51.568;6.998;2023-03-04T16:02:59;4.40;;;1.77;;
3141;SDS011;1581;51.568;6.998;2023-03-04T16:05:27;9.07;;;2.20;;
3141;SDS011;1581;51.568;6.998;2023-03-04T16:07:54;5.33;;;1.47;;
3141;SDS011;1581;51.568;6.998;2023-03-04T16:10:23;13.77;;;1.77;;